Time;durP1;ratioP1;P1;durP2;ratioP2;P2;SDS_P1;SDS_P2;PMS_P1;PMS_P2;Temp;Humidity;BMP_temperature;BMP_pressure;BME280_temperature;BME280_humidity;BME280_pressure;Samples;Min_cycle;Max_cycle;Signal;HPM_P1;HPM_P2
2023/09/08 00:00:58;;;;;;;0.00;0.00;;;21.40;57.00;;;;;;5042546;28;20064;-73
2023/09/08 00:03:23;;;;;;;0.00;0.00;;;21.50;56.20;;;;;;5042919;28;20053;-71
2023/09/08 00:05:50;;;;;;;0.00;0.00;;;21.40;56.10;;;;;;5042164;28;20025;-73
2023/09/08 00:08:15;;;;;;;0.00;0.00;;;21.50;55.80;;;;;;5042095;28;20182;-72
2023/09/08 00:10:41;;;;;;;0.00;0.00;;;21.50;55.30;;;;;;5041950;28;20029;-71
2023/09/08 00:13:07;;;;;;;0.00;0.00;;;21.50;55.70;;;;;;5040478;28;20029;-73
2023/09/08 00:15:36;;;;;;;0.00;0.00;;;21.40;56.10;;;;;;5040678;28;20476;-73
2023/09/08 00:18:02;;;;;;;0.00;0.00;;;21.20;57.60;;;;;;5042578;28;20025;-71
2023/09/08 00:20:28;;;;;;;0.00;0.00;;;21.10;58.20;;;;;;5040098;28;20021;-74
2023/09/08 00:22:54;;;;;;;0.00;0.00;;;21.10;59.30;;;;;;5042866;28;20495;-72
2023/09/08 00:25:19;;;;;;;0.00;0.00;;;21.00;59.00;;;;;;5041789;28;20097;-72
2023/09/08 00:27:45;;;;;;;0.00;0.00;;;20.90;58.90;;;;;;5042297;28;20112;-72
2023/09/08 00:30:11;;;;;;;0.63;0.63;;;21.00;59.00;;;;;;5041927;28;20068;-72
2023/09/08 00:32:37;;;;;;;0.08;0.08;;;20.90;58.80;;;;;;5040338;28;20082;-74
2023/09/08 00:35:05;;;;;;;0.00;0.00;;;21.00;58.20;;;;;;5041522;28;20057;-71
2023/09/08 00:37:31;;;;;;;0.00;0.00;;;20.90;58.90;;;;;;5041660;28;20033;-72
2023/09/08 00:39:57;;;;;;;0.00;0.00;;;20.80;59.40;;;;;;5042556;28;20028;-74
2023/09/08 00:42:22;;;;;;;0.00;0.00;;;20.70;60.50;;;;;;5046015;28;20078;-73
2023/09/08 00:44:48;;;;;;;0.00;0.00;;;20.60;61.00;;;;;;5045637;28;20451;-72
2023/09/08 00:47:14;;;;;;;0.00;0.00;;;20.70;60.10;;;;;;5041627;28;20029;-71
2023/09/08 00:49:39;;;;;;;0.00;0.00;;;20.80;59.30;;;;;;5042516;28;21181;-72
2023/09/08 00:52:06;;;;;;;0.00;0.00;;;20.90;58.30;;;;;;5042342;28;20021;-73
2023/09/08 00:54:31;;;;;;;0.00;0.00;;;20.90;57.90;;;;;;5040830;28;20073;-72
2023/09/08 00:56:58;;;;;;;0.00;0.00;;;20.80;59.00;;;;;;5042101;28;20033;-73
2023/09/08 00:59:24;;;;;;;0.00;0.00;;;20.60;60.30;;;;;;5041374;28;20099;-72
2023/09/08 01:01:50;;;;;;;;;;;20.40;61.20;;;;;;5043138;28;20191;-74
2023/09/08 01:04:16;;;;;;;0.00;0.00;;;20.30;61.10;;;;;;5040685;28;19923;-72
2023/09/08 01:06:42;;;;;;;0.00;0.00;;;20.30;61.50;;;;;;5041602;28;20500;-71
2023/09/08 01:09:09;;;;;;;0.00;0.00;;;20.30;62.30;;;;;;5041639;28;20206;-72
2023/09/08 01:11:36;;;;;;;0.00;0.00;;;20.20;63.40;;;;;;5040145;28;20033;-73
2023/09/08 01:14:01;;;;;;;0.00;0.00;;;20.20;64.10;;;;;;5039138;28;20067;-71
2023/09/08 01:16:27;;;;;;;0.00;0.00;;;20.10;63.80;;;;;;5032306;28;20679;-71
2023/09/08 01:18:55;;;;;;;0.00;0.00;;;20.20;63.80;;;;;;5040884;28;20057;-71
2023/09/08 01:21:48;;;;;;;0.00;0.00;;;20.10;64.20;;;;;;5040269;28;20107;-71
2023/09/08 01:24:51;;;;;;;0.00;0.00;;;20.10;64.30;;;;;;5035657;28;20978;-74
2023/09/08 01:27:20;;;;;;;0.00;0.00;;;20.10;64.90;;;;;;5038920;28;20036;-71
2023/09/08 01:29:47;;;;;;;0.00;0.00;;;20.00;65.20;;;;;;5038072;28;20883;-72
2023/09/08 01:32:13;;;;;;;0.00;0.00;;;19.90;65.40;;;;;;5036682;28;20107;-71
2023/09/08 01:34:40;;;;;;;0.00;0.00;;;19.90;65.80;;;;;;5038251;28;20573;-71
2023/09/08 01:37:07;;;;;;;1.48;1.27;;;19.80;66.30;;;;;;5041758;28;20736;-74
2023/09/08 01:39:32;;;;;;;0.00;0.00;;;19.70;67.60;;;;;;5048156;28;20079;-71
2023/09/08 01:41:58;;;;;;;0.00;0.00;;;19.60;68.70;;;;;;5048754;28;20036;-71
2023/09/08 01:44:23;;;;;;;0.00;0.00;;;19.50;69.50;;;;;;5047174;28;20044;-74
2023/09/08 01:46:51;;;;;;;0.00;0.00;;;19.50;70.40;;;;;;5043491;28;20881;-72
2023/09/08 01:49:16;;;;;;;0.00;0.00;;;19.40;71.30;;;;;;5045501;28;20036;-72
2023/09/08 01:51:42;;;;;;;0.00;0.00;;;19.30;72.10;;;;;;5045520;28;20064;-73
2023/09/08 01:54:08;;;;;;;0.00;0.00;;;19.20;72.60;;;;;;5046650;28;20067;-72
2023/09/08 01:56:34;;;;;;;0.00;0.00;;;19.20;73.00;;;;;;5046305;28;20092;-70
2023/09/08 01:58:59;;;;;;;0.00;0.00;;;19.10;73.60;;;;;;5046313;28;20017;-71
2023/09/08 02:01:25;;;;;;;0.00;0.00;;;19.00;74.40;;;;;;5044984;28;20044;-71
2023/09/08 02:03:51;;;;;;;0.00;0.00;;;19.10;74.70;;;;;;5044901;28;20025;-71
2023/09/08 02:06:16;;;;;;;0.00;0.00;;;19.00;74.70;;;;;;5045742;28;20037;-72
2023/09/08 02:08:42;;;;;;;0.00;0.00;;;19.10;73.30;;;;;;5045177;28;20029;-73
2023/09/08 02:11:08;;;;;;;0.00;0.00;;;19.10;73.90;;;;;;5044909;28;20102;-72
2023/09/08 02:13:34;;;;;;;0.00;0.00;;;19.10;74.20;;;;;;5046703;28;20071;-71
2023/09/08 02:15:59;;;;;;;0.00;0.00;;;18.90;74.90;;;;;;5044684;28;20542;-72
2023/09/08 02:18:26;;;;;;;0.00;0.00;;;18.80;75.80;;;;;;5045177;28;20513;-73
2023/09/08 02:20:52;;;;;;;0.00;0.00;;;18.70;76.00;;;;;;5045281;28;20063;-71
2023/09/08 02:23:17;;;;;;;0.00;0.00;;;18.80;75.50;;;;;;5040774;28;20037;-71
2023/09/08 02:25:43;;;;;;;0.00;0.00;;;18.90;75.10;;;;;;5045995;28;20051;-71
2023/09/08 02:28:08;;;;;;;0.00;0.00;;;18.90;75.40;;;;;;5045746;28;20073;-71
2023/09/08 02:30:35;;;;;;;0.00;0.00;;;18.80;75.90;;;;;;5045645;28;20028;-72
2023/09/08 02:33:02;;;;;;;0.52;0.52;;;18.60;77.10;;;;;;5041469;28;20029;-72
2023/09/08 02:35:28;;;;;;;0.20;0.20;;;18.50;77.80;;;;;;5044325;28;20092;-74
2023/09/08 02:37:54;;;;;;;0.00;0.00;;;18.40;78.00;;;;;;5046988;28;20167;-71
2023/09/08 02:40:20;;;;;;;0.00;0.00;;;18.40;78.40;;;;;;5045882;28;20025;-72
2023/09/08 02:42:46;;;;;;;0.00;0.00;;;18.30;79.10;;;;;;5046814;28;20060;-72
2023/09/08 02:45:12;;;;;;;0.00;0.00;;;18.20;80.00;;;;;;5046437;28;20472;-71
2023/09/08 02:47:37;;;;;;;0.00;0.00;;;18.20;79.90;;;;;;5046710;28;20064;-72
2023/09/08 02:50:04;;;;;;;0.10;0.10;;;18.30;79.70;;;;;;5040815;28;20033;-72
2023/09/08 02:52:30;;;;;;;;;;;18.40;78.90;;;;;;5041227;28;20031;-72
2023/09/08 02:54:55;;;;;;;0.00;0.00;;;18.40;78.50;;;;;;5041867;28;19916;-72
2023/09/08 02:57:21;;;;;;;0.00;0.00;;;18.40;78.10;;;;;;5041650;28;20484;-71
2023/09/08 02:59:56;;;;;;;0.00;0.00;;;18.50;78.20;;;;;;5041857;28;20025;-72
2023/09/08 03:02:22;;;;;;;0.00;0.00;;;18.40;78.60;;;;;;5038552;28;20512;-71
2023/09/08 03:04:48;;;;;;;0.00;0.00;;;18.30;79.40;;;;;;5040224;28;20020;-71
2023/09/08 03:07:13;;;;;;;0.00;0.00;;;18.20;80.00;;;;;;5048035;28;20544;-72
2023/09/08 03:09:39;;;;;;;2.00;0.77;;;18.20;80.70;;;;;;5044035;28;20028;-71
2023/09/08 03:12:05;;;;;;;0.37;0.37;;;18.10;81.30;;;;;;5043775;28;20033;-74
2023/09/08 03:14:31;;;;;;;0.03;0.03;;;18.00;81.50;;;;;;5043059;28;20025;-71
2023/09/08 03:16:56;;;;;;;0.00;0.00;;;18.00;81.20;;;;;;5038000;28;20064;-72
2023/09/08 03:19:22;;;;;;;0.00;0.00;;;18.00;81.10;;;;;;5043045;28;20079;-73
2023/09/08 03:21:48;;;;;;;0.00;0.00;;;17.90;81.90;;;;;;5043741;28;20041;-72
2023/09/08 03:24:13;;;;;;;0.10;0.10;;;17.80;82.40;;;;;;5043259;28;20111;-71
2023/09/08 03:26:42;;;;;;;0.00;0.00;;;17.70;82.60;;;;;;5042933;28;20098;-72
2023/09/08 03:29:08;;;;;;;0.00;0.00;;;17.90;81.90;;;;;;5042205;28;20037;-72
2023/09/08 03:31:34;;;;;;;0.00;0.00;;;17.70;82.30;;;;;;5040835;28;20029;-72
2023/09/08 03:33:59;;;;;;;0.00;0.00;;;17.70;82.70;;;;;;5043571;28;20148;-72
2023/09/08 03:36:25;;;;;;;0.00;0.00;;;17.70;82.70;;;;;;5042731;28;20766;-72
2023/09/08 03:38:51;;;;;;;0.30;0.30;;;17.70;82.60;;;;;;5043234;28;20052;-71
2023/09/08 03:41:16;;;;;;;0.00;0.00;;;17.70;82.80;;;;;;5043565;28;20582;-72
2023/09/08 03:43:42;;;;;;;0.00;0.00;;;17.60;83.00;;;;;;5043705;28;20024;-72
2023/09/08 03:46:08;;;;;;;0.10;0.10;;;17.50;83.50;;;;;;5042832;28;20040;-71
2023/09/08 03:48:34;;;;;;;0.00;0.00;;;17.60;83.70;;;;;;5043230;28;20040;-71
2023/09/08 03:50:59;;;;;;;0.00;0.00;;;17.50;84.20;;;;;;5043118;28;20025;-73
2023/09/08 03:53:25;;;;;;;0.00;0.00;;;17.50;84.50;;;;;;5044008;28;20067;-71
2023/09/08 03:55:51;;;;;;;0.00;0.00;;;17.50;84.80;;;;;;5042620;28;20102;-72
2023/09/08 03:58:17;;;;;;;0.00;0.00;;;17.40;85.30;;;;;;5042785;28;20738;-72
2023/09/08 04:00:43;;;;;;;0.00;0.00;;;17.30;85.90;;;;;;5041360;28;20847;-71
2023/09/08 04:03:08;;;;;;;0.03;0.03;;;17.30;86.00;;;;;;5043120;28;20984;-72
2023/09/08 04:05:34;;;;;;;0.97;0.97;;;17.30;86.00;;;;;;5043470;28;20021;-72
2023/09/08 04:08:01;;;;;;;0.00;0.00;;;17.30;85.90;;;;;;5043374;28;20017;-73
2023/09/08 04:10:26;;;;;;;0.00;0.00;;;17.30;86.20;;;;;;5042891;28;20519;-71
2023/09/08 04:12:52;;;;;;;0.00;0.00;;;17.40;86.10;;;;;;5042559;28;20045;-73
2023/09/08 04:15:18;;;;;;;0.00;0.00;;;17.30;86.40;;;;;;5042905;28;20025;-72
2023/09/08 04:17:45;;;;;;;0.00;0.00;;;17.20;86.80;;;;;;5042654;28;20116;-72
2023/09/08 04:20:10;;;;;;;;;;;17.20;87.20;;;;;;5034025;28;20045;-72
2023/09/08 04:22:36;;;;;;;0.00;0.00;;;17.20;86.60;;;;;;5040639;28;20435;-72
2023/09/08 04:25:02;;;;;;;0.00;0.00;;;17.20;86.50;;;;;;5040992;28;20729;-71
2023/09/08 04:27:28;;;;;;;0.00;0.00;;;17.10;87.00;;;;;;5042052;28;20017;-71
2023/09/08 04:29:54;;;;;;;0.00;0.00;;;17.10;87.50;;;;;;5038392;28;20037;-70
2023/09/08 04:32:19;;;;;;;0.00;0.00;;;16.90;88.20;;;;;;5042541;28;20112;-70
2023/09/08 04:34:45;;;;;;;0.00;0.00;;;16.90;88.60;;;;;;5042540;28;20061;-72
2023/09/08 04:37:11;;;;;;;0.00;0.00;;;16.90;88.80;;;;;;5042764;28;20038;-70
2023/09/08 04:39:37;;;;;;;0.00;0.00;;;16.90;89.20;;;;;;5047895;28;20857;-72
2023/09/08 04:42:03;;;;;;;0.00;0.00;;;16.80;89.30;;;;;;5041228;28;20051;-71
2023/09/08 04:44:29;;;;;;;0.05;0.05;;;16.90;89.30;;;;;;5041277;28;20032;-70
2023/09/08 04:46:55;;;;;;;0.10;0.10;;;16.80;89.70;;;;;;5040581;28;20655;-70
2023/09/08 04:49:21;;;;;;;0.00;0.00;;;16.70;89.90;;;;;;5039238;28;20025;-70
2023/09/08 04:51:46;;;;;;;0.10;0.10;;;16.70;90.00;;;;;;5048804;28;20024;-70
2023/09/08 04:54:12;;;;;;;0.00;0.00;;;16.70;90.10;;;;;;5047664;28;20033;-71
2023/09/08 04:56:41;;;;;;;0.00;0.00;;;16.70;90.20;;;;;;5047534;28;20025;-72
2023/09/08 04:59:06;;;;;;;0.10;0.10;;;16.60;90.40;;;;;;5041907;28;20033;-70
2023/09/08 05:01:32;;;;;;;0.00;0.00;;;16.60;90.40;;;;;;5039169;28;20086;-71
2023/09/08 05:03:59;;;;;;;0.00;0.00;;;16.60;90.60;;;;;;5046118;28;20029;-70
2023/09/08 05:06:25;;;;;;;0.00;0.00;;;16.50;90.90;;;;;;5046898;28;20853;-71
2023/09/08 05:08:51;;;;;;;0.00;0.00;;;16.40;91.20;;;;;;5036487;28;20388;-71
2023/09/08 05:11:18;;;;;;;0.00;0.00;;;16.40;91.20;;;;;;5039348;28;20040;-73
2023/09/08 05:13:44;;;;;;;0.00;0.00;;;16.40;91.50;;;;;;5041536;28;20025;-73
2023/09/08 05:16:11;;;;;;;1.98;0.57;;;16.30;91.70;;;;;;5041672;28;20057;-74
2023/09/08 05:18:40;;;;;;;0.00;0.00;;;16.30;91.90;;;;;;5035271;28;20679;-74
2023/09/08 05:21:07;;;;;;;0.10;0.10;;;16.30;92.10;;;;;;5039390;28;20037;-72
2023/09/08 05:23:33;;;;;;;0.00;0.00;;;16.30;92.10;;;;;;5038275;28;20032;-71
2023/09/08 05:25:59;;;;;;;0.10;0.10;;;16.30;92.10;;;;;;5039706;28;20040;-72
2023/09/08 05:28:25;;;;;;;0.10;0.10;;;16.30;92.00;;;;;;5040161;28;20028;-71
2023/09/08 05:30:54;;;;;;;0.10;0.10;;;16.30;92.10;;;;;;5038786;28;20270;-73
2023/09/08 05:33:20;;;;;;;0.00;0.00;;;16.30;92.30;;;;;;5037261;28;20039;-73
2023/09/08 05:35:45;;;;;;;0.00;0.00;;;16.30;92.40;;;;;;5038281;28;20053;-72
2023/09/08 05:38:11;;;;;;;0.20;0.20;;;16.50;92.00;;;;;;5042454;28;20033;-72
2023/09/08 05:40:37;;;;;;;0.10;0.10;;;16.90;91.00;;;;;;5041565;28;20037;-72
2023/09/08 05:43:04;;;;;;;0.10;0.10;;;17.10;90.50;;;;;;5041042;28;20044;-71
2023/09/08 05:45:31;;;;;;;0.00;0.00;;;17.10;90.60;;;;;;5042117;28;20029;-72
2023/09/08 05:47:57;;;;;;;0.00;0.00;;;17.20;90.30;;;;;;5041889;28;20076;-72
2023/09/08 05:50:23;;;;;;;0.97;0.47;;;17.30;90.10;;;;;;5042042;28;20120;-73
2023/09/08 05:52:48;;;;;;;0.00;0.00;;;17.40;89.40;;;;;;5041092;28;20119;-72
2023/09/08 05:55:14;;;;;;;0.00;0.00;;;17.90;87.70;;;;;;5041493;28;20033;-71
2023/09/08 05:57:40;;;;;;;0.00;0.00;;;18.00;86.90;;;;;;5039737;28;20064;-73
2023/09/08 06:00:07;;;;;;;0.10;0.10;;;18.00;87.20;;;;;;5040292;28;20071;-71
2023/09/08 06:02:32;;;;;;;0.00;0.00;;;18.00;87.00;;;;;;5040083;28;21674;-74
2023/09/08 06:04:58;;;;;;;0.00;0.00;;;18.20;86.60;;;;;;5034612;28;20033;-71
2023/09/08 06:07:24;;;;;;;0.00;0.00;;;18.90;84.20;;;;;;5046809;28;20079;-70
2023/09/08 06:09:49;;;;;;;0.00;0.00;;;19.30;82.30;;;;;;5044896;28;20412;-72
2023/09/08 06:12:15;;;;;;;0.00;0.00;;;19.80;80.10;;;;;;5042344;28;20503;-71
2023/09/08 06:14:41;;;;;;;0.00;0.00;;;20.40;78.40;;;;;;5054354;28;20017;-71
2023/09/08 06:17:07;;;;;;;0.00;0.00;;;20.70;77.40;;;;;;5041728;28;20029;-70
2023/09/08 06:19:33;;;;;;;0.00;0.00;;;20.90;76.10;;;;;;5041388;28;20030;-71
2023/09/08 06:21:58;;;;;;;0.67;0.57;;;21.00;75.10;;;;;;5042072;28;20494;-71
2023/09/08 06:24:24;;;;;;;0.00;0.00;;;21.10;74.20;;;;;;5040662;28;20025;-71
2023/09/08 06:26:50;;;;;;;0.00;0.00;;;21.20;73.50;;;;;;5036339;28;20036;-71
2023/09/08 06:29:16;;;;;;;0.00;0.00;;;21.30;74.10;;;;;;5045247;28;20114;-71
2023/09/08 06:31:42;;;;;;;0.00;0.00;;;21.40;72.90;;;;;;5045346;28;20099;-70
2023/09/08 06:34:08;;;;;;;0.00;0.00;;;21.80;73.00;;;;;;5045591;28;20049;-73
2023/09/08 06:36:33;;;;;;;0.00;0.00;;;22.10;71.50;;;;;;5045021;28;20044;-71
2023/09/08 06:39:00;;;;;;;0.00;0.00;;;22.00;71.40;;;;;;5045520;28;20036;-74
2023/09/08 06:41:27;;;;;;;0.00;0.00;;;22.40;70.10;;;;;;5046072;28;20094;-71
2023/09/08 06:43:53;;;;;;;0.00;0.00;;;22.30;70.10;;;;;;5045654;28;20044;-74
2023/09/08 06:46:18;;;;;;;0.00;0.00;;;22.60;69.90;;;;;;5045575;28;20025;-73
2023/09/08 06:48:44;;;;;;;0.00;0.00;;;22.70;69.20;;;;;;5045366;28;20029;-72
2023/09/08 06:51:10;;;;;;;0.00;0.00;;;22.90;69.10;;;;;;5045937;28;20493;-72
2023/09/08 06:53:36;;;;;;;0.00;0.00;;;23.20;68.00;;;;;;5045978;28;20087;-71
2023/09/08 06:56:02;;;;;;;0.00;0.00;;;23.60;67.00;;;;;;5045992;28;20021;-71
2023/09/08 06:58:28;;;;;;;0.00;0.00;;;23.60;66.90;;;;;;5045731;28;20036;-74
2023/09/08 07:00:54;;;;;;;0.00;0.00;;;23.70;66.00;;;;;;5045946;28;20068;-71
2023/09/08 07:03:22;;;;;;;0.00;0.00;;;24.10;65.60;;;;;;5043745;28;20518;-72
2023/09/08 07:05:49;;;;;;;0.10;0.10;;;24.10;65.80;;;;;;5044736;28;20032;-72
2023/09/08 07:08:15;;;;;;;0.00;0.00;;;24.70;64.30;;;;;;5045575;28;20100;-71
2023/09/08 07:10:40;;;;;;;0.00;0.00;;;24.60;63.70;;;;;;5045236;28;20029;-72
2023/09/08 07:13:06;;;;;;;0.00;0.00;;;24.70;63.00;;;;;;5045983;28;20049;-71
2023/09/08 07:15:32;;;;;;;0.00;0.00;;;24.80;62.60;;;;;;5045422;28;20031;-71
2023/09/08 07:17:58;;;;;;;0.00;0.00;;;25.50;60.80;;;;;;5044734;28;20029;-72
2023/09/08 07:20:23;;;;;;;0.00;0.00;;;25.70;61.40;;;;;;5045654;28;20017;-72
2023/09/08 07:22:49;;;;;;;0.00;0.00;;;25.70;60.50;;;;;;5040291;28;20044;-73
2023/09/08 07:25:15;;;;;;;0.00;0.00;;;26.00;60.00;;;;;;5044362;28;20024;-72
2023/09/08 07:27:40;;;;;;;0.00;0.00;;;25.60;60.10;;;;;;5045177;28;20036;-71
2023/09/08 07:30:07;;;;;;;0.00;0.00;;;25.80;60.10;;;;;;5045272;28;20554;-72
2023/09/08 07:32:32;;;;;;;0.00;0.00;;;25.90;59.90;;;;;;5043177;28;20115;-74
2023/09/08 07:34:58;;;;;;;0.00;0.00;;;26.40;59.80;;;;;;5044946;28;20146;-72
2023/09/08 07:37:24;;;;;;;0.00;0.00;;;26.20;58.80;;;;;;5045724;28;20082;-72
2023/09/08 07:39:51;;;;;;;0.00;0.00;;;26.20;59.20;;;;;;5045078;28;20024;-71
2023/09/08 07:42:17;;;;;;;0.00;0.00;;;26.70;58.00;;;;;;5045296;28;20043;-71
2023/09/08 07:44:42;;;;;;;0.00;0.00;;;27.20;57.40;;;;;;5045302;28;20026;-75
2023/09/08 07:47:08;;;;;;;0.00;0.00;;;26.90;57.00;;;;;;5045618;28;20041;-71
2023/09/08 07:49:34;;;;;;;0.00;0.00;;;26.80;58.00;;;;;;5044298;28;20116;-72
2023/09/08 07:52:00;;;;;;;0.00;0.00;;;27.60;56.70;;;;;;5045084;28;20044;-72
2023/09/08 07:54:26;;;;;;;;;;;27.80;56.60;;;;;;5044680;28;20021;-72
2023/09/08 07:56:52;;;;;;;0.00;0.00;;;27.70;55.00;;;;;;5044424;28;19935;-71
2023/09/08 07:59:17;;;;;;;0.00;0.00;;;27.90;55.10;;;;;;5042990;28;20032;-75
2023/09/08 08:01:43;;;;;;;0.00;0.00;;;27.80;55.50;;;;;;5044741;28;20512;-71
2023/09/08 08:04:09;;;;;;;0.00;0.00;;;28.10;54.50;;;;;;5044218;28;20029;-75
2023/09/08 08:06:35;;;;;;;0.00;0.00;;;28.20;54.50;;;;;;5045370;28;20074;-72
2023/09/08 08:09:00;;;;;;;0.00;0.00;;;28.60;54.00;;;;;;5043995;28;20025;-71
2023/09/08 08:11:27;;;;;;;0.00;0.00;;;29.30;52.90;;;;;;5044507;28;20033;-72
2023/09/08 08:13:53;;;;;;;0.00;0.00;;;29.50;51.50;;;;;;5044394;28;20024;-72
2023/09/08 08:16:21;;;;;;;0.38;0.38;;;29.70;51.40;;;;;;5043776;28;20083;-73
2023/09/08 08:18:47;;;;;;;0.00;0.00;;;30.00;51.00;;;;;;5043558;28;20039;-71
2023/09/08 08:21:13;;;;;;;;;;;30.10;50.70;;;;;;5044537;28;20032;-72
2023/09/08 08:23:38;;;;;;;0.00;0.00;;;30.00;50.50;;;;;;5043882;28;19990;-72
2023/09/08 08:26:04;;;;;;;;;;;30.10;49.80;;;;;;5044433;28;20085;-73
2023/09/08 08:28:29;;;;;;;;;;;29.60;50.20;;;;;;5044734;28;19951;-71
2023/09/08 08:30:56;;;;;;;;;;;30.10;50.80;;;;;;5044799;28;19918;-71
2023/09/08 08:33:22;;;;;;;0.00;0.00;;;31.10;48.30;;;;;;5042441;28;20348;-72
2023/09/08 08:35:52;;;;;;;0.00;0.00;;;31.60;47.80;;;;;;5044100;28;20140;-73
2023/09/08 08:38:19;;;;;;;0.00;0.00;;;31.70;47.10;;;;;;5043306;28;20055;-72
2023/09/08 08:40:45;;;;;;;;;;;31.70;47.70;;;;;;5044761;28;20035;-72
2023/09/08 08:43:11;;;;;;;0.17;0.17;;;31.80;46.80;;;;;;5043533;28;19916;-72
2023/09/08 08:45:38;;;;;;;0.00;0.00;;;31.90;47.80;;;;;;5043759;28;20052;-72
2023/09/08 08:48:05;;;;;;;0.00;0.00;;;32.10;47.90;;;;;;5043050;28;20032;-71
2023/09/08 08:50:32;;;;;;;0.00;0.00;;;32.60;46.80;;;;;;5043344;28;20107;-72
2023/09/08 08:52:58;;;;;;;0.00;0.00;;;32.70;45.40;;;;;;5041765;28;20029;-74
2023/09/08 08:55:25;;;;;;;;;;;32.50;45.50;;;;;;5043662;28;20082;-72
2023/09/08 08:57:52;;;;;;;0.32;0.32;;;32.90;45.30;;;;;;5043078;28;19915;-72
2023/09/08 09:00:18;;;;;;;0.00;0.00;;;33.20;44.80;;;;;;5043802;28;20028;-73
2023/09/08 09:02:44;;;;;;;0.00;0.00;;;33.50;45.70;;;;;;5042642;28;20041;-73
2023/09/08 09:05:14;;;;;;;0.00;0.00;;;33.60;44.50;;;;;;5044026;28;20100;-71
2023/09/08 09:07:41;;;;;;;0.00;0.00;;;33.90;44.00;;;;;;5043240;28;20086;-71
2023/09/08 09:10:08;;;;;;;0.00;0.00;;;33.80;43.20;;;;;;5043541;28;20032;-72
2023/09/08 09:12:35;;;;;;;0.00;0.00;;;33.90;44.50;;;;;;5042035;28;20033;-71
2023/09/08 09:15:04;;;;;;;0.00;0.00;;;34.40;43.80;;;;;;5043805;28;20411;-71
2023/09/08 09:17:32;;;;;;;0.00;0.00;;;34.00;42.50;;;;;;5043476;28;20025;-73
2023/09/08 09:20:17;;;;;;;0.00;0.00;;;34.80;43.00;;;;;;5042249;28;20680;-73
2023/09/08 09:22:44;;;;;;;0.00;0.00;;;34.80;42.00;;;;;;5043213;28;20043;-72
2023/09/08 09:25:10;;;;;;;0.25;0.25;;;35.00;43.00;;;;;;5039977;28;20053;-71
2023/09/08 09:27:38;;;;;;;0.00;0.00;;;34.40;42.80;;;;;;5042788;28;20421;-71
2023/09/08 09:30:05;;;;;;;0.00;0.00;;;35.10;43.50;;;;;;5042335;28;20507;-72
2023/09/08 09:32:31;;;;;;;0.00;0.00;;;34.90;42.30;;;;;;5040719;28;20040;-74
2023/09/08 09:34:57;;;;;;;;;;;35.60;42.80;;;;;;5043480;28;20131;-71
2023/09/08 09:37:23;;;;;;;0.00;0.00;;;35.60;42.10;;;;;;5033371;28;20375;-73
2023/09/08 09:39:50;;;;;;;0.00;0.00;;;35.50;41.10;;;;;;5042619;28;20032;-75
2023/09/08 09:42:17;;;;;;;0.00;0.00;;;35.90;41.50;;;;;;5038504;28;20029;-72
2023/09/08 09:44:42;;;;;;;0.00;0.00;;;35.40;41.50;;;;;;5042783;28;20104;-73
2023/09/08 09:47:09;;;;;;;0.00;0.00;;;35.50;41.80;;;;;;5043101;28;20057;-71
2023/09/08 09:49:45;;;;;;;0.00;0.00;;;36.10;41.70;;;;;;5043132;28;20048;-71
2023/09/08 09:52:20;;;;;;;0.00;0.00;;;35.90;40.90;;;;;;5034730;28;20573;-73
2023/09/08 09:54:47;;;;;;;0.00;0.00;;;35.90;42.50;;;;;;5042475;28;20033;-71
2023/09/08 09:57:14;;;;;;;0.15;0.15;;;35.20;42.20;;;;;;5042648;28;20029;-72
2023/09/08 09:59:43;;;;;;;0.00;0.00;;;35.90;42.40;;;;;;5043954;28;20032;-71
2023/09/08 10:02:13;;;;;;;0.00;0.00;;;35.10;41.50;;;;;;5046305;28;20531;-73
2023/09/08 10:04:42;;;;;;;0.00;0.00;;;34.90;40.80;;;;;;5046816;28;20033;-72
2023/09/08 10:07:08;;;;;;;0.00;0.00;;;33.80;41.50;;;;;;5046828;28;20036;-72
2023/09/08 10:09:37;;;;;;;0.00;0.00;;;32.90;43.10;;;;;;5046295;28;20050;-71
2023/09/08 10:12:04;;;;;;;0.00;0.00;;;33.50;42.20;;;;;;5046615;28;20086;-74
2023/09/08 10:14:32;;;;;;;0.00;0.00;;;33.00;42.80;;;;;;5046869;28;20025;-73
2023/09/08 10:17:00;;;;;;;0.00;0.00;;;32.50;42.40;;;;;;5046067;28;20029;-74
2023/09/08 10:19:27;;;;;;;0.00;0.00;;;32.10;42.70;;;;;;5047155;28;20033;-74
2023/09/08 10:21:59;;;;;;;0.00;0.00;;;31.50;42.90;;;;;;5047734;28;20104;-73
2023/09/08 10:24:32;;;;;;;0.00;0.00;;;31.60;42.40;;;;;;5046040;28;20116;-71
2023/09/08 10:27:08;;;;;;;0.00;0.00;;;31.70;42.80;;;;;;5046240;28;20094;-73
2023/09/08 10:29:35;;;;;;;0.00;0.00;;;31.40;42.20;;;;;;5045560;28;20448;-71
2023/09/08 10:32:02;;;;;;;0.00;0.00;;;31.80;42.40;;;;;;5044354;28;20155;-72
2023/09/08 10:34:29;;;;;;;0.00;0.00;;;31.40;42.40;;;;;;5046547;28;20057;-74
2023/09/08 10:36:55;;;;;;;0.00;0.00;;;31.40;43.50;;;;;;5045969;28;20500;-71
2023/09/08 10:39:38;;;;;;;0.00;0.00;;;30.80;42.20;;;;;;5045697;28;20440;-71
2023/09/08 10:42:25;;;;;;;0.00;0.00;;;31.20;43.80;;;;;;5046158;28;20048;-74
2023/09/08 10:44:58;;;;;;;0.00;0.00;;;31.00;42.10;;;;;;5057381;28;20017;-72
2023/09/08 10:47:25;;;;;;;0.00;0.00;;;31.10;41.90;;;;;;5045885;28;20029;-72
2023/09/08 10:49:53;;;;;;;0.00;0.00;;;31.00;42.10;;;;;;5044865;28;20587;-71
2023/09/08 10:52:22;;;;;;;0.00;0.00;;;30.90;42.60;;;;;;5045024;28;20130;-73
2023/09/08 10:54:50;;;;;;;0.00;0.00;;;31.20;42.30;;;;;;5045629;28;20086;-73
2023/09/08 10:57:17;;;;;;;0.00;0.00;;;31.20;43.10;;;;;;5046061;28;20029;-71
2023/09/08 10:59:56;;;;;;;0.00;0.00;;;31.30;43.90;;;;;;5045709;28;20017;-72
2023/09/08 11:02:38;;;;;;;0.00;0.00;;;31.30;43.30;;;;;;5045207;28;20131;-72
2023/09/08 11:05:15;;;;;;;0.00;0.00;;;31.30;42.90;;;;;;5045032;28;20161;-73
2023/09/08 11:07:43;;;;;;;0.00;0.00;;;31.30;42.70;;;;;;5045699;28;20036;-72
2023/09/08 11:10:10;;;;;;;0.05;0.05;;;31.20;42.80;;;;;;5042595;28;20075;-72
2023/09/08 11:12:36;;;;;;;0.00;0.00;;;31.00;42.10;;;;;;5045373;28;20029;-71
2023/09/08 11:15:05;;;;;;;0.00;0.00;;;31.10;42.80;;;;;;5046099;28;20096;-72
2023/09/08 11:17:31;;;;;;;0.00;0.00;;;31.10;43.20;;;;;;5044826;28;20103;-71
2023/09/08 11:19:58;;;;;;;0.00;0.00;;;31.10;43.70;;;;;;5046541;28;20839;-71
2023/09/08 11:22:25;;;;;;;0.00;0.00;;;31.10;44.00;;;;;;5046504;28;20033;-72
2023/09/08 11:24:56;;;;;;;0.00;0.00;;;31.00;41.60;;;;;;5044889;28;20048;-71
2023/09/08 11:27:23;;;;;;;0.00;0.00;;;30.90;42.50;;;;;;5045025;28;20102;-74
2023/09/08 11:29:50;;;;;;;0.00;0.00;;;31.00;42.80;;;;;;5045510;28;20115;-72
2023/09/08 11:32:16;;;;;;;0.00;0.00;;;31.00;44.10;;;;;;5042766;28;20025;-71
2023/09/08 11:34:42;;;;;;;0.00;0.00;;;30.80;43.60;;;;;;5045326;28;20527;-73
2023/09/08 11:37:18;;;;;;;0.00;0.00;;;30.90;43.80;;;;;;5043705;28;20988;-74
2023/09/08 11:39:47;;;;;;;;;;;30.70;43.60;;;;;;5045646;28;20025;-72
2023/09/08 11:42:14;;;;;;;0.00;0.00;;;30.70;44.50;;;;;;5050599;28;19927;-73
2023/09/08 11:44:41;;;;;;;0.00;0.00;;;30.60;43.80;;;;;;5049317;28;20024;-71
2023/09/08 11:47:07;;;;;;;0.00;0.00;;;30.60;43.10;;;;;;5045027;28;20025;-73
2023/09/08 11:49:37;;;;;;;0.00;0.00;;;30.20;42.70;;;;;;5044907;28;20037;-73
2023/09/08 11:52:04;;;;;;;0.00;0.00;;;30.30;42.70;;;;;;5045016;28;20463;-74
2023/09/08 11:54:34;;;;;;;0.00;0.00;;;30.20;44.10;;;;;;5044206;28;20040;-74
2023/09/08 11:57:01;;;;;;;0.00;0.00;;;30.30;44.20;;;;;;5044817;28;20021;-71
2023/09/08 11:59:32;;;;;;;0.00;0.00;;;30.20;43.30;;;;;;5043382;28;20527;-71
2023/09/08 12:01:58;;;;;;;0.00;0.00;;;30.10;44.10;;;;;;5043892;28;20033;-73
2023/09/08 12:04:24;;;;;;;0.28;0.28;;;30.20;45.40;;;;;;5044298;28;20060;-72
2023/09/08 12:06:53;;;;;;;0.00;0.00;;;30.20;44.70;;;;;;5043404;28;20086;-72
2023/09/08 12:09:20;;;;;;;0.00;0.00;;;30.20;42.90;;;;;;5044293;28;20132;-73
2023/09/08 12:11:46;;;;;;;0.00;0.00;;;30.00;43.40;;;;;;5045217;28;20112;-71
2023/09/08 12:14:13;;;;;;;0.05;0.05;;;30.10;43.10;;;;;;5043655;28;20052;-72
2023/09/08 12:16:40;;;;;;;0.00;0.00;;;30.10;43.70;;;;;;5044379;28;21063;-74
2023/09/08 12:19:06;;;;;;;0.00;0.00;;;30.00;43.80;;;;;;5045013;28;20035;-72
2023/09/08 12:21:35;;;;;;;;;;;30.00;43.80;;;;;;5045330;28;20047;-72
2023/09/08 12:24:00;;;;;;;0.00;0.00;;;30.00;45.00;;;;;;5035487;28;19911;-72
2023/09/08 12:26:27;;;;;;;0.00;0.00;;;29.90;44.00;;;;;;5044609;28;20025;-71
2023/09/08 12:28:52;;;;;;;;;;;29.90;45.90;;;;;;5045180;28;20033;-73
2023/09/08 12:31:18;;;;;;;0.00;0.00;;;30.00;45.30;;;;;;5042700;28;19970;-73
2023/09/08 12:33:44;;;;;;;0.00;0.00;;;30.10;44.20;;;;;;5043602;28;20090;-72
2023/09/08 12:36:14;;;;;;;;;;;30.10;43.60;;;;;;5043139;28;20032;-72
2023/09/08 12:38:40;;;;;;;0.03;0.03;;;29.80;44.60;;;;;;5044194;28;19952;-73
2023/09/08 12:41:06;;;;;;;0.00;0.00;;;29.80;43.90;;;;;;5043765;28;20086;-71
2023/09/08 12:43:32;;;;;;;0.30;0.30;;;29.80;45.20;;;;;;5043724;28;20099;-71
2023/09/08 12:45:57;;;;;;;0.00;0.00;;;29.90;45.50;;;;;;5043878;28;20029;-74
2023/09/08 12:48:23;;;;;;;0.00;0.00;;;29.90;45.60;;;;;;5043192;28;20677;-72